Meteo Giornale » Osservazioni meteo Italia » Catania-Fontanarossa

ore: 06:20 - Osservazioni Meteo Catania-Fontanarossa
Lat. 37° 28' N Lon. 15° 3' E Alt. 11 metri s.l.m.

sereno Europe/Rome

5 °C

Sereno

Temp. 24 Ore

5 °C

17 °C

Ovest

9.3 Km/h

Dew point 4 °C

Umidità 93 %

Visibilità  10 Km

Il sole sorge alle ore 07:03

Il sole tramonta alle ore 16:43

Data e Ora Cielo e Fenomeni T °C DP °C Um. % Pres. hPa Vis. km Vento km/h
Oggi h: 06:20 sereno Sereno 5 4 93 1019 10 O 9.3
Oggi h: 05:50 sereno Sereno 5 0 70 1019 10 O/SO 9.3
Oggi h: 05:20 sereno Sereno 5 0 70 1019 10 SO 7.4
Oggi h: 04:50 sereno Sereno 5 0 70 1019 10 O/SO 7.4
Oggi h: 04:20 sereno Sereno 6 0 65 1019 10 O 9.3
Oggi h: 03:50 sereno Sereno 6 0 65 1019 10 O/SO 9.3
Oggi h: 03:20 sereno Sereno 7 0 60 1018 10 SO 13
Oggi h: 02:50 sereno Sereno 7 -23 9 1019 10 O/SO 13
Oggi h: 02:20 sereno Sereno 7 5 87 1019 10 O 13
Oggi h: 01:50 sereno Sereno 8 5 81 1019 10 O 14.8
Oggi h: 01:20 poco_nuvoloso Poco Nuvoloso 8 5 81 1018 10 O/SO 11.1
Oggi h: 00:50 nuvoloso Nuvoloso 9 5 75 1018 10 O 11.1
Oggi h: 00:20 nuvoloso Nuvoloso 10 5 71 1018 10 O 11.1
Ieri h: 23:50 molto_nuvoloso Molto Nuvoloso 12 4 57 1019 10 O/NO 13
Ieri h: 23:20 nuvoloso Nuvoloso 12 5 62 1019 10 O 13
Ieri h: 22:50 nuvoloso Nuvoloso 12 5 62 1019 10 O/NO 13
Ieri h: 22:20 nuvoloso Nuvoloso 11 6 71 1019 10 O/NO 16.7
Ieri h: 21:50 molto_nuvoloso Molto Nuvoloso 11 6 71 1018 10 O 9.3
Ieri h: 21:20 molto_nuvoloso Molto Nuvoloso 10 6 76 1018 10 O 9.3
Ieri h: 20:50 nuvoloso Nuvoloso 10 6 76 1018 10 O/SO 13
Ieri h: 20:20 molto_nuvoloso Molto Nuvoloso 10 5 71 1018 10 O/SO 13
Ieri h: 19:50 molto_nuvoloso Molto Nuvoloso 11 5 66 1018 10 O 14.8
Ieri h: 19:20 molto_nuvoloso Molto Nuvoloso 11 5 66 1018 10 O 16.7
Ieri h: 18:50 nuvoloso Nuvoloso 10 5 71 1017 10 O 11.1
Ieri h: 18:20 nuvoloso Nuvoloso 10 5 71 1017 10 O 11.1
Ieri h: 17:50 nuvoloso Nuvoloso 10 5 71 1017 10 O 13
Ieri h: 17:20 nuvoloso Nuvoloso 12 4 57 1017 10 O 14.8
Ieri h: 16:50 molto_nuvoloso Molto Nuvoloso 13 4 54 1017 10 O 18.5
Ieri h: 15:50 molto_nuvoloso Molto Nuvoloso 15 5 51 1016 10 O/NO 14.8
Ieri h: 15:20 molto_nuvoloso Molto Nuvoloso 16 4 44 1016 10 O/NO 11.1
Ieri h: 14:50 molto_nuvoloso Molto Nuvoloso 16 3 41 1016 10 NO 11.1
Ieri h: 14:20 nuvoloso Nuvoloso 16 2 38 1016 10 NO 16.7
Ieri h: 13:50 nuvoloso Nuvoloso 16 4 44 1016 10 O/NO 20.3
Ieri h: 13:20 nuvoloso Nuvoloso 16 4 44 1016 10 O/NO 25.9
Ieri h: 12:50 poco_nuvoloso Poco Nuvoloso 17 5 45 1016 10 O 24
Ieri h: 12:20 poco_nuvoloso Poco Nuvoloso 17 5 45 1016 10 O 22.2
Ieri h: 11:50 nuvoloso Nuvoloso 15 4 47 1016 10 O 27.8
Ieri h: 11:20 poco_nuvoloso Poco Nuvoloso 17 6 48 1017 10 O 20.3
Ieri h: 10:50 poco_nuvoloso Poco Nuvoloso 16 7 55 1017 10 O 20.3
Ieri h: 10:20 poco_nuvoloso Poco Nuvoloso 15 7 58 1017 10 O 24
Ieri h: 09:50 sereno Sereno 14 7 62 1017 10 O/SO 24
Ieri h: 09:20 sereno Sereno 13 7 66 1017 10 O 14.8
Ieri h: 08:50 poco_nuvoloso Poco Nuvoloso 11 7 76 1017 10 O 13
Ieri h: 08:20 molto_nuvoloso Molto Nuvoloso 10 7 81 1016 10 O/SO 14.8
Ieri h: 07:50 molto_nuvoloso Molto Nuvoloso 9 7 87 1016 10 O 13
Ieri h: 07:20 nuvoloso Nuvoloso 8 6 87 1016 10 O 14.8
Ieri h: 06:50 nuvoloso Nuvoloso 8 6 87 1016 10 O 14.8
Ieri h: 06:20 nuvoloso Nuvoloso 7 6 93 1016 10 O 11.1